createdAt,value
2023-05-01T00:01:06.160Z,9.60
2023-05-01T00:03:33.858Z,9.77
2023-05-01T00:06:02.152Z,9.78
2023-05-01T00:08:29.786Z,9.74
2023-05-01T00:10:57.252Z,9.83
2023-05-01T00:13:26.527Z,9.59
2023-05-01T00:15:55.704Z,9.45
2023-05-01T00:18:23.191Z,9.27
2023-05-01T00:20:50.994Z,9.18
2023-05-01T00:23:18.507Z,9.15
2023-05-01T00:25:46.031Z,9.16
2023-05-01T00:28:13.502Z,9.33
2023-05-01T00:30:42.410Z,9.34
2023-05-01T00:33:10.175Z,9.37
2023-05-01T00:35:38.031Z,9.43
2023-05-01T00:38:05.678Z,9.46
2023-05-01T00:40:33.132Z,9.33
2023-05-01T00:43:00.576Z,9.43
2023-05-01T00:45:28.172Z,9.46
2023-05-01T00:47:57.095Z,9.25
2023-05-01T00:50:24.611Z,9.25
2023-05-01T00:52:53.136Z,9.28
2023-05-01T00:55:21.476Z,9.26
2023-05-01T00:57:49.085Z,9.10
2023-05-01T01:00:17.483Z,9.09
2023-05-01T01:02:45.024Z,9.02
2023-05-01T01:05:13.956Z,8.91
2023-05-01T01:07:51.133Z,8.85
2023-05-01T01:10:28.628Z,8.84
2023-05-01T01:13:05.330Z,8.80
2023-05-01T01:15:37.029Z,8.76
2023-05-01T01:18:11.023Z,8.91
2023-05-01T01:20:45.623Z,8.79
2023-05-01T01:23:28.853Z,8.73
2023-05-01T01:26:39.146Z,8.73
2023-05-01T01:29:38.204Z,8.78
2023-05-01T01:32:20.604Z,8.68
2023-05-01T01:34:53.052Z,8.54
2023-05-01T01:37:23.908Z,8.54
2023-05-01T01:39:58.991Z,8.60
2023-05-01T01:42:31.513Z,8.58
2023-05-01T01:45:04.923Z,8.48
2023-05-01T01:47:34.812Z,8.38
2023-05-01T01:50:08.200Z,8.38
2023-05-01T01:52:38.099Z,8.37
2023-05-01T01:55:09.359Z,8.25
2023-05-01T01:57:39.575Z,8.11
2023-05-01T02:00:11.460Z,8.23
2023-05-01T02:02:40.994Z,8.15
2023-05-01T02:05:14.476Z,8.21
2023-05-01T02:07:44.262Z,8.00
2023-05-01T02:10:14.904Z,8.06
2023-05-01T02:12:45.512Z,8.20
2023-05-01T02:15:14.824Z,8.22
2023-05-01T02:17:42.816Z,8.15
2023-05-01T02:20:13.341Z,8.20
2023-05-01T02:22:41.940Z,8.15
2023-05-01T02:25:12.426Z,8.22
2023-05-01T02:27:44.681Z,8.16
2023-05-01T02:30:13.426Z,8.18
2023-05-01T02:32:41.317Z,8.11
2023-05-01T02:35:09.196Z,8.25
2023-05-01T02:37:38.661Z,7.96
2023-05-01T02:40:08.159Z,7.92
2023-05-01T02:42:36.265Z,7.81
2023-05-01T02:45:06.405Z,7.80
2023-05-01T02:47:37.869Z,7.81
2023-05-01T02:50:09.062Z,7.72
2023-05-01T02:52:38.816Z,7.79
2023-05-01T02:55:07.206Z,7.79
2023-05-01T02:57:34.755Z,7.74
2023-05-01T03:00:02.217Z,7.71
2023-05-01T03:02:29.858Z,7.68
2023-05-01T03:04:57.285Z,7.64
2023-05-01T03:07:24.746Z,7.72
2023-05-01T03:09:53.631Z,7.64
2023-05-01T03:12:21.669Z,7.41
2023-05-01T03:14:49.127Z,7.53
2023-05-01T03:17:16.568Z,7.42
2023-05-01T03:19:44.043Z,7.48
2023-05-01T03:22:11.488Z,7.63
2023-05-01T03:24:38.920Z,7.55
2023-05-01T03:27:07.824Z,7.36
2023-05-01T03:29:37.868Z,7.35
2023-05-01T03:32:05.910Z,7.51
2023-05-01T03:34:34.148Z,7.28
2023-05-01T03:37:01.590Z,7.21
2023-05-01T03:39:29.029Z,7.46
2023-05-01T03:41:56.462Z,7.44
2023-05-01T03:44:25.303Z,7.82
2023-05-01T03:46:52.829Z,7.81
2023-05-01T03:49:20.541Z,7.60
2023-05-01T03:51:47.979Z,7.55
2023-05-01T03:54:15.424Z,7.38
2023-05-01T03:56:42.882Z,7.56
2023-05-01T03:59:10.416Z,7.29
2023-05-01T04:01:39.825Z,7.29
2023-05-01T04:04:08.075Z,6.92
2023-05-01T04:06:36.167Z,7.05
2023-05-01T04:09:03.970Z,7.08
2023-05-01T04:11:31.400Z,7.35
2023-05-01T04:13:58.884Z,7.40
2023-05-01T04:16:26.465Z,7.21
2023-05-01T04:18:55.289Z,7.58
2023-05-01T04:21:22.910Z,7.81
2023-05-01T04:23:50.411Z,7.77
2023-05-01T04:26:18.071Z,8.06
2023-05-01T04:28:45.522Z,8.11
2023-05-01T04:31:13.717Z,7.78
2023-05-01T04:33:41.208Z,7.77
2023-05-01T04:36:10.057Z,7.77
2023-05-01T04:38:38.110Z,7.86
2023-05-01T04:41:06.051Z,8.02
2023-05-01T04:43:33.580Z,8.30
2023-05-01T04:46:01.037Z,8.51
2023-05-01T04:48:28.521Z,8.86
2023-05-01T04:50:56.038Z,8.82
2023-05-01T04:53:24.844Z,8.60
2023-05-01T04:55:52.356Z,8.40
2023-05-01T04:58:19.800Z,8.92
2023-05-01T05:00:47.258Z,8.98
2023-05-01T05:03:15.495Z,8.68
2023-05-01T05:05:43.080Z,8.82
2023-05-01T05:08:10.680Z,8.80
2023-05-01T05:10:39.452Z,8.75
2023-05-01T05:13:06.912Z,8.88
2023-05-01T05:15:34.360Z,8.71
2023-05-01T05:18:02.227Z,8.87
2023-05-01T05:20:29.774Z,8.82
2023-05-01T05:22:57.293Z,8.86
2023-05-01T05:25:25.285Z,8.74
2023-05-01T05:27:54.149Z,8.79
2023-05-01T05:30:21.641Z,9.16
2023-05-01T05:32:49.192Z,9.40
2023-05-01T05:35:16.940Z,9.67
2023-05-01T05:37:46.120Z,9.85
2023-05-01T05:40:14.410Z,10.11
2023-05-01T05:42:41.852Z,10.02
2023-05-01T05:45:11.219Z,10.33
2023-05-01T05:47:39.120Z,10.77
2023-05-01T05:50:07.993Z,10.75
2023-05-01T05:52:35.481Z,11.54
2023-05-01T05:55:03.001Z,11.45
2023-05-01T05:57:30.444Z,12.44
2023-05-01T05:59:58.367Z,12.27
2023-05-01T06:02:27.470Z,12.47
2023-05-01T06:04:56.410Z,12.54
2023-05-01T06:07:23.900Z,13.13
2023-05-01T06:09:51.343Z,12.63
2023-05-01T06:12:18.785Z,12.40
2023-05-01T06:14:46.741Z,12.74
2023-05-01T06:17:15.070Z,12.55
2023-05-01T06:19:43.845Z,12.94
2023-05-01T06:22:11.287Z,11.75
2023-05-01T06:24:39.727Z,12.43
2023-05-01T06:27:07.291Z,11.85
2023-05-01T06:29:34.728Z,11.90
2023-05-01T06:32:02.182Z,12.24
2023-05-01T06:34:29.629Z,12.43
2023-05-01T06:36:58.409Z,12.89
2023-05-01T06:39:25.873Z,12.82
2023-05-01T06:41:53.301Z,12.97
2023-05-01T06:44:20.803Z,13.53
2023-05-01T06:46:48.300Z,14.10
2023-05-01T06:49:15.837Z,14.57
2023-05-01T06:51:43.353Z,13.87
2023-05-01T06:54:12.334Z,14.65
2023-05-01T06:56:40.006Z,14.41
2023-05-01T06:59:07.443Z,13.80
2023-05-01T07:01:35.731Z,12.61
2023-05-01T07:04:03.939Z,13.12
2023-05-01T07:06:32.224Z,13.42
2023-05-01T07:08:59.720Z,14.17
2023-05-01T07:11:28.529Z,14.17
2023-05-01T07:13:56.338Z,14.43
2023-05-01T07:16:23.790Z,14.61
2023-05-01T07:18:51.331Z,14.83
2023-05-01T07:21:18.850Z,13.73
2023-05-01T07:23:46.337Z,14.10
2023-05-01T07:26:13.816Z,14.40
2023-05-01T07:28:42.597Z,15.59
2023-05-01T07:31:10.754Z,15.83
2023-05-01T07:33:38.266Z,16.63
2023-05-01T07:36:05.870Z,16.55
2023-05-01T07:38:33.527Z,16.89
2023-05-01T07:41:01.011Z,16.97
2023-05-01T07:43:28.446Z,18.17
2023-05-01T07:45:58.805Z,18.16
2023-05-01T07:48:26.974Z,18.07
2023-05-01T07:50:55.091Z,18.41
2023-05-01T07:53:23.447Z,18.86
2023-05-01T07:55:51.038Z,19.87
2023-05-01T07:58:18.976Z,20.72
2023-05-01T08:00:46.436Z,21.24
2023-05-01T08:03:15.351Z,21.04
2023-05-01T08:05:43.204Z,21.75
2023-05-01T08:08:10.706Z,21.00
2023-05-01T08:10:38.153Z,21.15
2023-05-01T08:13:05.592Z,19.86
2023-05-01T08:15:33.045Z,20.21
2023-05-01T08:18:00.597Z,20.75
2023-05-01T08:20:29.551Z,20.33
2023-05-01T08:22:57.005Z,19.97
2023-05-01T08:25:24.598Z,18.84
2023-05-01T08:27:52.601Z,18.38
2023-05-01T08:30:20.509Z,18.31
2023-05-01T08:32:49.170Z,18.55
2023-05-01T08:35:16.837Z,18.75
2023-05-01T08:37:45.620Z,19.00
2023-05-01T08:40:13.411Z,19.06
2023-05-01T08:42:40.866Z,19.08
2023-05-01T08:45:10.085Z,19.04
2023-05-01T08:47:39.276Z,19.29
2023-05-01T08:50:12.139Z,18.86
2023-05-01T08:52:42.091Z,18.04
2023-05-01T08:55:13.589Z,17.81
2023-05-01T08:57:46.809Z,17.59
2023-05-01T09:00:19.464Z,17.69
2023-05-01T09:02:49.357Z,17.98
2023-05-01T09:05:17.939Z,17.85
2023-05-01T09:07:46.512Z,17.55
2023-05-01T09:10:17.873Z,17.63
2023-05-01T09:12:51.665Z,18.11
2023-05-01T09:15:19.177Z,18.05
2023-05-01T09:17:46.711Z,17.63
2023-05-01T09:20:14.539Z,17.98
2023-05-01T09:22:42.117Z,18.40
2023-05-01T09:25:10.851Z,18.11
2023-05-01T09:27:40.227Z,17.83
2023-05-01T09:30:09.437Z,17.82
2023-05-01T09:32:36.945Z,18.10
2023-05-01T09:35:12.202Z,18.01
2023-05-01T09:37:40.539Z,17.88
2023-05-01T09:40:09.666Z,17.86
2023-05-01T09:42:40.697Z,17.88
2023-05-01T09:45:14.086Z,18.77
2023-05-01T09:47:42.530Z,19.72
2023-05-01T09:50:11.275Z,19.58
2023-05-01T09:52:38.801Z,19.52
2023-05-01T09:55:14.584Z,19.62
2023-05-01T09:57:45.228Z,19.61
2023-05-01T10:00:15.381Z,20.06
2023-05-01T10:02:45.212Z,20.43
2023-05-01T10:05:13.841Z,20.42
2023-05-01T10:07:42.968Z,20.41
2023-05-01T10:10:17.889Z,20.40
2023-05-01T10:12:46.730Z,20.30
2023-05-01T10:15:24.478Z,20.23
2023-05-01T10:17:52.936Z,20.05
2023-05-01T10:20:20.845Z,20.22
2023-05-01T10:22:48.847Z,20.34
2023-05-01T10:25:18.718Z,20.56
2023-05-01T10:27:48.411Z,20.22
2023-05-01T10:30:18.065Z,20.65
2023-05-01T10:32:47.254Z,20.71
2023-05-01T10:35:20.314Z,20.88
2023-05-01T10:37:49.258Z,21.69
2023-05-01T10:40:44.803Z,21.92
2023-05-01T10:43:18.356Z,23.23
2023-05-01T10:45:47.017Z,23.99
2023-05-01T10:48:52.104Z,24.02
2023-05-01T10:51:21.261Z,23.71
2023-05-01T10:53:50.389Z,24.45
2023-05-01T10:56:44.000Z,25.22
2023-05-01T10:59:12.998Z,24.91
2023-05-01T11:01:41.684Z,24.07
2023-05-01T11:04:53.939Z,24.58
2023-05-01T11:07:23.574Z,24.87
2023-05-01T11:09:54.978Z,24.28
2023-05-01T11:12:54.425Z,25.62
2023-05-01T11:15:32.137Z,26.10
2023-05-01T11:18:00.091Z,26.65
2023-05-01T11:20:50.491Z,26.32
2023-05-01T11:23:21.982Z,26.08
2023-05-01T11:25:52.772Z,26.98
2023-05-01T11:28:22.520Z,26.99
2023-05-01T11:30:51.705Z,26.61
2023-05-01T11:33:28.461Z,26.87
2023-05-01T11:36:00.635Z,23.12
2023-05-01T11:38:28.334Z,22.47
2023-05-01T11:40:59.052Z,23.04
2023-05-01T11:43:26.760Z,24.25
2023-05-01T11:46:03.827Z,25.14
2023-05-01T11:48:32.454Z,25.77
2023-05-01T11:51:00.155Z,25.51
2023-05-01T11:53:27.678Z,25.15
2023-05-01T11:55:55.298Z,23.08
2023-05-01T11:58:33.790Z,22.22
2023-05-01T12:01:03.265Z,22.12
2023-05-01T12:03:42.284Z,22.57
2023-05-01T12:06:10.997Z,22.78
2023-05-01T12:08:42.696Z,23.45
2023-05-01T12:11:10.470Z,23.80
2023-05-01T12:13:40.142Z,23.03
2023-05-01T12:16:09.431Z,22.61
2023-05-01T12:18:37.211Z,22.99
2023-05-01T12:21:04.743Z,22.05
2023-05-01T12:23:34.835Z,22.01
2023-05-01T12:26:03.867Z,20.82
2023-05-01T12:28:31.977Z,20.28
2023-05-01T12:31:05.264Z,21.49
2023-05-01T12:33:34.421Z,21.86
2023-05-01T12:36:11.842Z,22.35
2023-05-01T12:38:39.457Z,22.77
2023-05-01T12:41:09.444Z,22.27
2023-05-01T12:43:38.531Z,22.45
2023-05-01T12:46:07.626Z,23.22
2023-05-01T12:48:40.075Z,23.68
2023-05-01T12:51:07.971Z,23.75
2023-05-01T12:53:35.625Z,22.55
2023-05-01T12:56:03.372Z,21.30
2023-05-01T12:58:37.805Z,20.68
2023-05-01T13:01:06.272Z,20.91
2023-05-01T13:03:40.098Z,21.28
2023-05-01T13:06:09.024Z,21.43
2023-05-01T13:08:39.650Z,21.49
2023-05-01T13:11:13.024Z,21.36
2023-05-01T13:13:41.003Z,21.09
2023-05-01T13:16:12.421Z,19.79
2023-05-01T13:18:46.242Z,17.68
2023-05-01T13:21:16.694Z,17.61
2023-05-01T13:23:53.908Z,16.63
2023-05-01T13:26:27.491Z,16.61
2023-05-01T13:28:55.388Z,16.26
2023-05-01T13:31:22.887Z,16.20
2023-05-01T13:33:54.183Z,15.52
2023-05-01T13:36:26.875Z,15.49
2023-05-01T13:38:56.988Z,15.17
2023-05-01T13:41:26.685Z,14.45
2023-05-01T13:43:55.504Z,14.15
2023-05-01T13:46:24.521Z,13.68
2023-05-01T13:48:53.569Z,13.51
2023-05-01T13:51:23.157Z,13.27
2023-05-01T13:53:50.910Z,13.15
2023-05-01T13:56:18.505Z,13.07
2023-05-01T13:58:46.308Z,12.80
2023-05-01T14:01:16.364Z,12.97
2023-05-01T14:03:44.399Z,12.75
2023-05-01T14:06:15.110Z,12.59
2023-05-01T14:08:43.200Z,12.59
2023-05-01T14:11:11.628Z,12.75
2023-05-01T14:13:41.815Z,12.54
2023-05-01T14:16:11.470Z,12.71
2023-05-01T14:18:45.496Z,13.21
2023-05-01T14:21:16.225Z,13.24
2023-05-01T14:23:44.218Z,13.08
2023-05-01T14:26:12.967Z,13.18
2023-05-01T14:28:43.046Z,13.73
2023-05-01T14:31:10.673Z,13.77
2023-05-01T14:33:43.187Z,13.15
2023-05-01T14:36:10.702Z,13.12
2023-05-01T14:38:41.486Z,13.81
2023-05-01T14:41:12.926Z,14.14
2023-05-01T14:43:42.245Z,14.35
2023-05-01T14:46:09.773Z,14.91
2023-05-01T14:48:38.009Z,15.07
2023-05-01T14:51:06.593Z,14.99
2023-05-01T14:53:34.512Z,15.00
2023-05-01T14:56:03.316Z,15.48
2023-05-01T14:58:30.811Z,15.62
2023-05-01T15:00:58.339Z,16.09
2023-05-01T15:03:25.933Z,16.45
2023-05-01T15:05:53.609Z,16.92
2023-05-01T15:08:21.047Z,16.73
2023-05-01T15:10:48.515Z,16.47
2023-05-01T15:13:17.504Z,16.87
2023-05-01T15:15:44.967Z,16.05
2023-05-01T15:18:12.503Z,15.33
2023-05-01T15:20:40.090Z,15.36
2023-05-01T15:23:07.574Z,15.88
2023-05-01T15:25:35.024Z,16.18
2023-05-01T15:28:03.407Z,16.24
2023-05-01T15:30:32.388Z,16.65
2023-05-01T15:32:59.926Z,17.06
2023-05-01T15:35:27.636Z,16.69
2023-05-01T15:37:56.430Z,16.69
2023-05-01T15:40:23.906Z,16.64
2023-05-01T15:42:51.645Z,16.30
2023-05-01T15:45:19.850Z,16.42
2023-05-01T15:47:48.789Z,16.46
2023-05-01T15:50:16.296Z,16.85
2023-05-01T15:52:43.777Z,15.64
2023-05-01T15:55:12.655Z,15.02
2023-05-01T15:57:40.103Z,14.64
2023-05-01T16:00:10.526Z,14.87
2023-05-01T16:02:38.150Z,15.26
2023-05-01T16:05:08.458Z,15.02
2023-05-01T16:07:35.958Z,14.57
2023-05-01T16:10:03.762Z,14.74
2023-05-01T16:12:32.000Z,14.78
2023-05-01T16:15:02.196Z,15.43
2023-05-01T16:17:32.908Z,15.69
2023-05-01T16:20:01.528Z,15.82
2023-05-01T16:22:33.224Z,16.48
2023-05-01T16:25:01.184Z,16.84
2023-05-01T16:27:28.672Z,16.85
2023-05-01T16:29:56.210Z,16.86
2023-05-01T16:32:24.732Z,15.59
2023-05-01T16:34:52.295Z,14.65
2023-05-01T16:37:22.544Z,14.21
2023-05-01T16:39:51.700Z,14.36
2023-05-01T16:42:19.197Z,14.32
2023-05-01T16:44:46.759Z,14.24
2023-05-01T16:47:14.207Z,14.25
2023-05-01T16:49:42.695Z,14.57
2023-05-01T16:52:14.003Z,14.92
2023-05-01T16:54:41.524Z,15.57
2023-05-01T16:57:10.711Z,16.09
2023-05-01T16:59:38.578Z,15.19
2023-05-01T17:02:06.741Z,15.45
2023-05-01T17:04:34.306Z,14.09
2023-05-01T17:07:01.847Z,13.83
2023-05-01T17:09:29.391Z,13.91
2023-05-01T17:11:57.474Z,14.25
2023-05-01T17:14:28.561Z,14.12
2023-05-01T17:16:56.196Z,13.78
2023-05-01T17:19:23.851Z,13.86
2023-05-01T17:21:51.367Z,13.79
2023-05-01T17:24:18.979Z,14.15
2023-05-01T17:26:46.666Z,14.17
2023-05-01T17:29:14.107Z,14.05
2023-05-01T17:31:42.962Z,13.78
2023-05-01T17:34:10.429Z,13.38
2023-05-01T17:36:37.880Z,13.42
2023-05-01T17:39:05.315Z,13.34
2023-05-01T17:41:32.855Z,13.57
2023-05-01T17:44:00.402Z,13.83
2023-05-01T17:46:27.988Z,14.17
2023-05-01T17:48:57.217Z,14.48
2023-05-01T17:51:24.732Z,14.63
2023-05-01T17:53:52.837Z,14.68
2023-05-01T17:56:21.313Z,15.27
2023-05-01T17:58:48.749Z,15.39
2023-05-01T18:01:16.247Z,15.76
2023-05-01T18:03:43.877Z,15.76
2023-05-01T18:06:13.268Z,15.35
2023-05-01T18:08:41.409Z,14.55
2023-05-01T18:11:09.433Z,14.91
2023-05-01T18:13:39.532Z,15.03
2023-05-01T18:16:07.071Z,15.04
2023-05-01T18:18:34.570Z,14.88
2023-05-01T18:21:02.044Z,14.87
2023-05-01T18:23:30.893Z,14.70
2023-05-01T18:25:58.513Z,14.84
2023-05-01T18:28:26.888Z,14.79
2023-05-01T18:30:54.394Z,14.73
2023-05-01T18:33:22.536Z,14.78
2023-05-01T18:35:50.103Z,14.67
2023-05-01T18:38:17.552Z,14.60
2023-05-01T18:40:47.558Z,14.61
2023-05-01T18:43:15.582Z,14.47
2023-05-01T18:45:43.031Z,14.52
2023-05-01T18:48:11.925Z,14.49
2023-05-01T18:50:39.436Z,14.60
2023-05-01T18:53:06.919Z,14.72
2023-05-01T18:55:35.195Z,14.80
2023-05-01T18:58:04.137Z,14.88
2023-05-01T19:00:31.714Z,14.91
2023-05-01T19:02:59.210Z,14.73
2023-05-01T19:05:26.831Z,14.48
2023-05-01T19:07:58.981Z,14.68
2023-05-01T19:10:26.420Z,14.25
2023-05-01T19:12:53.895Z,13.81
2023-05-01T19:15:22.707Z,13.89
2023-05-01T19:17:50.991Z,13.78
2023-05-01T19:20:18.537Z,13.41
2023-05-01T19:22:46.070Z,13.44
2023-05-01T19:25:13.533Z,13.14
2023-05-01T19:27:42.621Z,12.84
2023-05-01T19:30:10.525Z,13.33
2023-05-01T19:32:39.366Z,13.26
2023-05-01T19:35:07.356Z,13.36
2023-05-01T19:37:34.813Z,13.37
2023-05-01T19:40:02.525Z,13.63
2023-05-01T19:42:31.041Z,13.69
2023-05-01T19:44:58.505Z,13.67
2023-05-01T19:47:26.045Z,13.63
2023-05-01T19:49:54.924Z,13.77
2023-05-01T19:52:22.380Z,13.77
2023-05-01T19:54:49.835Z,13.15
2023-05-01T19:57:17.801Z,13.00
2023-05-01T19:59:45.298Z,13.05
2023-05-01T20:02:12.816Z,12.83
2023-05-01T20:04:40.310Z,12.67
2023-05-01T20:07:09.183Z,12.47
2023-05-01T20:09:36.665Z,12.72
2023-05-01T20:12:04.440Z,13.21
2023-05-01T20:14:34.015Z,13.51
2023-05-01T20:17:01.970Z,13.60
2023-05-01T20:19:29.513Z,13.63
2023-05-01T20:21:56.990Z,13.61
2023-05-01T20:24:25.860Z,13.59
2023-05-01T20:26:53.881Z,13.48
2023-05-01T20:29:21.466Z,13.25
2023-05-01T20:31:50.339Z,13.36
2023-05-01T20:34:17.813Z,13.04
2023-05-01T20:36:45.275Z,12.34
2023-05-01T20:39:12.774Z,12.70
2023-05-01T20:41:41.628Z,12.64
2023-05-01T20:44:09.385Z,12.93
2023-05-01T20:46:37.045Z,13.09
2023-05-01T20:49:05.425Z,12.60
2023-05-01T20:51:33.008Z,12.41
2023-05-01T20:54:00.450Z,12.12
2023-05-01T20:56:27.931Z,12.12
2023-05-01T20:58:56.755Z,12.61
2023-05-01T21:01:24.245Z,12.93
2023-05-01T21:03:51.988Z,13.02
2023-05-01T21:06:19.656Z,13.05
2023-05-01T21:08:48.400Z,13.08
2023-05-01T21:11:15.890Z,13.07
2023-05-01T21:13:43.385Z,13.03
2023-05-01T21:16:15.545Z,13.04
2023-05-01T21:18:43.348Z,12.92
2023-05-01T21:21:11.127Z,12.92
2023-05-01T21:23:46.841Z,12.88
2023-05-01T21:26:15.477Z,12.89
2023-05-01T21:28:43.463Z,12.87
2023-05-01T21:31:13.627Z,12.93
2023-05-01T21:33:45.400Z,12.90
2023-05-01T21:36:14.749Z,12.91
2023-05-01T21:38:42.252Z,12.90
2023-05-01T21:41:10.615Z,12.87
2023-05-01T21:43:38.697Z,12.86
2023-05-01T21:46:06.428Z,12.91
2023-05-01T21:48:36.204Z,12.96
2023-05-01T21:51:04.359Z,12.96
2023-05-01T21:53:33.317Z,12.99
2023-05-01T21:56:01.125Z,13.01
2023-05-01T21:58:29.009Z,12.98
2023-05-01T22:00:56.539Z,12.99
2023-05-01T22:03:24.797Z,12.96
2023-05-01T22:05:53.964Z,12.95
2023-05-01T22:08:21.713Z,12.97
2023-05-01T22:10:49.283Z,12.88
2023-05-01T22:13:16.758Z,12.87
2023-05-01T22:15:44.356Z,12.79
2023-05-01T22:18:13.621Z,12.80
2023-05-01T22:20:41.102Z,12.81
2023-05-01T22:23:09.899Z,12.75
2023-05-01T22:25:37.370Z,12.78
2023-05-01T22:28:05.965Z,12.85
2023-05-01T22:30:34.723Z,12.88
2023-05-01T22:33:02.233Z,12.82
2023-05-01T22:35:30.203Z,12.64
2023-05-01T22:37:57.915Z,12.48
2023-05-01T22:40:26.713Z,12.55
2023-05-01T22:42:54.211Z,12.57
2023-05-01T22:45:21.757Z,12.52
2023-05-01T22:47:49.258Z,12.42
2023-05-01T22:50:16.936Z,12.44
2023-05-01T22:52:46.498Z,12.39
2023-05-01T22:55:14.286Z,12.25
2023-05-01T22:57:43.071Z,12.08
2023-05-01T23:00:13.775Z,12.05
2023-05-01T23:02:41.431Z,11.80
2023-05-01T23:05:10.306Z,11.51
2023-05-01T23:07:38.161Z,11.56
2023-05-01T23:10:06.488Z,11.50
2023-05-01T23:12:34.009Z,11.56
2023-05-01T23:15:02.796Z,11.42
2023-05-01T23:17:34.690Z,11.36
2023-05-01T23:20:02.494Z,11.24
2023-05-01T23:22:30.999Z,11.21
2023-05-01T23:24:58.480Z,11.14
2023-05-01T23:27:26.082Z,10.99
2023-05-01T23:29:56.506Z,11.15
2023-05-01T23:32:27.825Z,10.97
2023-05-01T23:34:56.614Z,11.11
2023-05-01T23:37:24.064Z,11.12
2023-05-01T23:39:53.460Z,10.54
2023-05-01T23:42:22.069Z,10.74
2023-05-01T23:44:49.714Z,11.17
2023-05-01T23:47:17.301Z,11.29
2023-05-01T23:49:46.178Z,11.32
2023-05-01T23:52:13.692Z,11.26
2023-05-01T23:54:41.133Z,11.14
2023-05-01T23:57:08.636Z,11.02
2023-05-01T23:59:36.781Z,11.05
